Time;durP1;ratioP1;P1;durP2;ratioP2;P2;SDS_P1;SDS_P2;PMS_P1;PMS_P2;Temp;Humidity;BMP_temperature;BMP_pressure;BME280_temperature;BME280_humidity;BME280_pressure;Samples;Min_cycle;Max_cycle;Signal;HPM_P1;HPM_P2
2022/12/08 00:01:36;;;;;;;0.10;0.10;;;5.40;99.90;;;;;;5062407;28;20677;-80
2022/12/08 00:04:03;;;;;;;0.10;0.10;;;5.40;99.90;;;;;;5062521;28;20187;-80
2022/12/08 00:09:20;;;;;;;0.10;0.10;;;5.40;99.90;;;;;;5064029;28;20331;-80
2022/12/08 00:11:49;;;;;;;0.10;0.10;;;5.40;99.90;;;;;;5062808;28;20289;-80
2022/12/08 00:14:15;;;;;;;0.10;0.10;;;5.40;99.90;;;;;;5077058;28;20293;-80
2022/12/08 00:16:40;;;;;;;0.10;0.10;;;5.30;99.90;;;;;;5062517;28;20251;-81
2022/12/08 00:19:06;;;;;;;0.10;0.10;;;5.40;99.90;;;;;;5062039;28;20201;-80
2022/12/08 00:21:31;;;;;;;0.00;0.00;;;5.40;99.90;;;;;;5062615;28;20192;-80
2022/12/08 00:23:57;;;;;;;0.10;0.10;;;5.50;99.90;;;;;;5063172;28;20181;-80
2022/12/08 00:26:22;;;;;;;0.10;0.10;;;5.50;99.90;;;;;;5062277;28;20245;-80
2022/12/08 00:28:48;;;;;;;0.10;0.10;;;5.50;99.90;;;;;;5063508;28;20230;-80
2022/12/08 00:31:14;;;;;;;0.10;0.10;;;5.50;99.90;;;;;;5060301;28;20188;-80
2022/12/08 00:33:39;;;;;;;0.10;0.10;;;5.50;99.90;;;;;;5060572;28;20177;-80
2022/12/08 00:36:13;;;;;;;0.10;0.10;;;5.60;99.90;;;;;;5061608;28;20678;-80
2022/12/08 00:38:40;;;;;;;0.00;0.00;;;5.60;99.90;;;;;;5060870;28;20188;-80
2022/12/08 00:41:13;;;;;;;0.10;0.10;;;5.70;99.90;;;;;;5061606;28;20191;-80
2022/12/08 00:43:38;;;;;;;0.10;0.10;;;5.70;99.90;;;;;;5059891;28;20245;-80
2022/12/08 00:46:04;;;;;;;0.10;0.10;;;5.80;99.90;;;;;;5061790;28;20294;-80
2022/12/08 00:48:29;;;;;;;0.10;0.10;;;5.80;99.90;;;;;;5062223;28;20650;-80
2022/12/08 00:50:55;;;;;;;0.10;0.10;;;5.80;99.90;;;;;;5062567;28;20189;-80
2022/12/08 00:53:20;;;;;;;0.10;0.10;;;5.80;99.90;;;;;;5062397;28;20196;-80
2022/12/08 00:55:46;;;;;;;0.10;0.10;;;5.80;99.90;;;;;;5061686;28;20200;-80
2022/12/08 00:58:11;;;;;;;0.10;0.10;;;5.70;99.90;;;;;;5064931;28;20189;-80
2022/12/08 01:00:40;;;;;;;0.10;0.10;;;5.80;99.90;;;;;;5062749;28;20197;-80
2022/12/08 01:03:11;;;;;;;0.10;0.10;;;5.80;99.90;;;;;;5064194;28;20662;-80
2022/12/08 01:05:37;;;;;;;0.10;0.10;;;5.90;99.90;;;;;;5063517;28;20205;-80
2022/12/08 01:08:07;;;;;;;0.10;0.10;;;5.90;99.90;;;;;;5065254;28;20274;-80
2022/12/08 01:10:37;;;;;;;0.10;0.10;;;5.90;99.90;;;;;;5064449;28;20677;-80
2022/12/08 01:13:03;;;;;;;0.10;0.10;;;5.90;99.90;;;;;;5062639;28;21026;-80
2022/12/08 01:15:28;;;;;;;0.10;0.10;;;5.80;99.90;;;;;;5063065;28;20228;-80
2022/12/08 01:17:54;;;;;;;0.10;0.10;;;5.90;99.90;;;;;;5064320;28;20246;-80
2022/12/08 01:20:19;;;;;;;0.10;0.10;;;5.90;99.90;;;;;;5062814;28;20208;-80
2022/12/08 01:22:45;;;;;;;0.10;0.10;;;5.80;99.90;;;;;;5063764;28;20170;-80
2022/12/08 01:25:11;;;;;;;0.10;0.10;;;5.80;99.90;;;;;;5067826;28;20188;-80
2022/12/08 01:27:36;;;;;;;0.10;0.10;;;5.80;99.90;;;;;;5066461;28;20206;-80
2022/12/08 01:30:02;;;;;;;0.10;0.10;;;5.80;99.90;;;;;;5064907;28;20594;-80
2022/12/08 01:32:28;;;;;;;0.10;0.10;;;5.80;99.90;;;;;;5064545;28;20271;-80
2022/12/08 01:34:53;;;;;;;0.10;0.10;;;5.80;99.90;;;;;;5065223;28;20195;-80
2022/12/08 01:37:19;;;;;;;0.00;0.00;;;5.70;99.90;;;;;;5065909;28;20297;-80
2022/12/08 01:39:44;;;;;;;0.10;0.10;;;5.70;99.90;;;;;;5065034;28;20315;-82
2022/12/08 01:42:19;;;;;;;0.10;0.10;;;5.70;99.90;;;;;;5063849;28;20184;-80
2022/12/08 01:44:50;;;;;;;0.10;0.10;;;5.70;99.90;;;;;;5064835;28;20195;-80
2022/12/08 01:47:16;;;;;;;0.10;0.10;;;5.70;99.90;;;;;;5064399;28;20291;-80
2022/12/08 01:49:41;;;;;;;0.10;0.10;;;5.60;99.90;;;;;;5063443;28;20211;-80
2022/12/08 01:52:16;;;;;;;0.00;0.00;;;5.60;99.90;;;;;;5065395;28;20184;-80
2022/12/08 01:54:50;;;;;;;0.10;0.10;;;5.70;99.90;;;;;;5066294;28;20191;-80
2022/12/08 01:57:21;;;;;;;0.10;0.10;;;5.70;99.90;;;;;;5066690;28;20218;-80
2022/12/08 01:59:51;;;;;;;0.10;0.10;;;5.70;99.90;;;;;;5065375;28;20203;-80
2022/12/08 02:02:17;;;;;;;0.00;0.00;;;5.60;99.90;;;;;;5065610;28;20185;-80
2022/12/08 02:04:42;;;;;;;0.10;0.10;;;5.50;99.90;;;;;;5063543;28;20195;-80
2022/12/08 02:07:11;;;;;;;0.07;0.07;;;5.40;99.90;;;;;;5064914;28;20212;-80
2022/12/08 02:09:38;;;;;;;0.10;0.10;;;5.30;99.90;;;;;;5065457;28;20207;-80
2022/12/08 02:12:04;;;;;;;0.10;0.10;;;5.20;99.90;;;;;;5065032;28;20185;-80
2022/12/08 02:14:31;;;;;;;0.10;0.10;;;5.10;99.90;;;;;;5064175;28;20254;-80
2022/12/08 02:17:04;;;;;;;0.10;0.10;;;5.00;99.90;;;;;;5065591;28;20623;-80
2022/12/08 02:19:53;;;;;;;0.10;0.10;;;4.90;99.90;;;;;;5063898;28;20200;-80
2022/12/08 02:22:26;;;;;;;0.10;0.10;;;4.70;99.90;;;;;;5063957;28;20180;-80
2022/12/08 02:25:10;;;;;;;0.10;0.10;;;4.70;99.90;;;;;;5066113;28;20172;-80
2022/12/08 02:27:54;;;;;;;0.10;0.10;;;4.70;99.90;;;;;;5081104;28;20609;-80
2022/12/08 02:30:22;;;;;;;0.10;0.10;;;4.70;99.90;;;;;;5062952;28;20189;-80
2022/12/08 02:33:04;;;;;;;0.10;0.10;;;4.70;99.90;;;;;;5063782;28;20627;-80
2022/12/08 02:35:51;;;;;;;0.10;0.10;;;4.60;99.90;;;;;;5062402;28;21235;-80
2022/12/08 02:38:44;;;;;;;0.10;0.10;;;4.60;99.90;;;;;;5064515;28;20195;-80
2022/12/08 02:41:16;;;;;;;0.10;0.10;;;4.60;99.90;;;;;;5063237;28;20181;-80
2022/12/08 02:43:47;;;;;;;0.10;0.10;;;4.60;99.90;;;;;;5064119;28;20183;-80
2022/12/08 02:46:54;;;;;;;0.00;0.00;;;4.60;99.90;;;;;;5063722;28;20221;-80
2022/12/08 02:49:20;;;;;;;0.03;0.03;;;4.60;99.90;;;;;;5004938;28;20303;-80
2022/12/08 02:51:45;;;;;;;0.10;0.10;;;4.60;99.90;;;;;;5021371;28;20273;-80
2022/12/08 02:54:13;;;;;;;0.10;0.10;;;4.60;99.90;;;;;;5042070;28;20677;-81
2022/12/08 02:56:47;;;;;;;0.10;0.10;;;4.60;99.90;;;;;;5063294;28;20208;-80
2022/12/08 02:59:22;;;;;;;0.10;0.10;;;4.60;99.90;;;;;;5062418;28;20227;-79
2022/12/08 03:02:05;;;;;;;0.00;0.00;;;4.70;99.90;;;;;;5064427;28;20202;-80
2022/12/08 03:05:05;;;;;;;0.10;0.10;;;4.60;99.90;;;;;;5064174;28;20177;-80
2022/12/08 03:07:48;;;;;;;0.00;0.00;;;4.60;99.90;;;;;;5080626;28;20209;-80
2022/12/08 03:10:23;;;;;;;0.10;0.10;;;4.70;99.90;;;;;;5062662;28;20274;-80
2022/12/08 03:12:57;;;;;;;0.10;0.10;;;4.70;99.90;;;;;;5062652;28;20262;-80
2022/12/08 03:15:22;;;;;;;0.10;0.10;;;4.60;99.90;;;;;;5063503;28;20750;-80
2022/12/08 03:17:53;;;;;;;0.10;0.10;;;4.60;99.90;;;;;;5062786;28;20249;-81
2022/12/08 03:20:22;;;;;;;0.10;0.10;;;4.60;99.90;;;;;;5061972;28;20693;-80
2022/12/08 03:22:52;;;;;;;0.10;0.10;;;4.60;99.90;;;;;;5063460;28;20187;-80
2022/12/08 03:25:23;;;;;;;0.10;0.10;;;4.60;99.90;;;;;;5063455;28;20243;-80
2022/12/08 03:27:50;;;;;;;0.10;0.10;;;4.60;99.90;;;;;;5061621;28;20691;-80
2022/12/08 03:30:15;;;;;;;0.00;0.00;;;4.50;99.90;;;;;;5061823;28;20218;-80
2022/12/08 03:32:59;;;;;;;0.10;0.10;;;4.50;99.90;;;;;;5063786;28;20230;-80
2022/12/08 03:35:31;;;;;;;0.10;0.10;;;4.50;99.90;;;;;;5065307;28;20240;-80
2022/12/08 03:38:12;;;;;;;0.07;0.07;;;4.50;99.90;;;;;;5063862;28;20214;-80
2022/12/08 03:40:38;;;;;;;0.10;0.10;;;4.50;99.90;;;;;;5061939;28;20269;-81
2022/12/08 03:43:04;;;;;;;0.10;0.10;;;4.60;99.90;;;;;;5063190;28;20333;-81
2022/12/08 03:45:29;;;;;;;0.10;0.10;;;4.60;99.90;;;;;;5063131;28;20745;-81
2022/12/08 03:47:55;;;;;;;0.10;0.10;;;4.50;99.90;;;;;;5063143;28;20246;-80
2022/12/08 03:50:22;;;;;;;0.10;0.10;;;4.60;99.90;;;;;;5079046;28;20239;-80
2022/12/08 03:52:47;;;;;;;1.50;1.50;;;4.60;99.90;;;;;;5062713;28;20185;-80
2022/12/08 03:55:13;;;;;;;0.10;0.10;;;4.60;99.90;;;;;;5062403;28;20200;-80
2022/12/08 03:57:38;;;;;;;0.10;0.10;;;4.60;99.90;;;;;;5061917;28;20226;-80
2022/12/08 04:00:06;;;;;;;0.10;0.10;;;4.70;99.90;;;;;;5061824;28;20270;-80
2022/12/08 04:02:31;;;;;;;0.07;0.07;;;4.70;99.90;;;;;;5063381;28;20229;-80
2022/12/08 04:04:57;;;;;;;0.10;0.10;;;4.80;99.90;;;;;;5063682;28;20553;-80
2022/12/08 04:07:22;;;;;;;0.10;0.10;;;4.80;99.90;;;;;;5065016;28;20196;-80
2022/12/08 04:09:48;;;;;;;0.10;0.10;;;4.90;99.90;;;;;;5064434;28;20198;-80
2022/12/08 04:12:13;;;;;;;0.10;0.10;;;4.80;99.90;;;;;;5063800;28;20269;-80
2022/12/08 04:14:39;;;;;;;0.10;0.10;;;4.90;99.90;;;;;;5063489;28;20316;-80
2022/12/08 04:17:04;;;;;;;0.10;0.10;;;5.00;99.90;;;;;;5064640;28;20381;-80
2022/12/08 04:19:30;;;;;;;0.10;0.10;;;4.90;99.90;;;;;;5063696;28;20212;-80
2022/12/08 04:21:55;;;;;;;0.10;0.10;;;5.00;99.90;;;;;;5063761;28;20186;-80
2022/12/08 04:24:21;;;;;;;0.10;0.10;;;5.00;99.90;;;;;;5064037;28;20196;-80
2022/12/08 04:26:48;;;;;;;0.10;0.10;;;5.00;99.90;;;;;;5064089;28;20202;-80
2022/12/08 04:29:14;;;;;;;0.10;0.10;;;5.00;99.90;;;;;;5064114;28;20307;-80
2022/12/08 04:31:40;;;;;;;0.10;0.10;;;5.00;99.90;;;;;;5062652;28;20214;-80
2022/12/08 04:34:05;;;;;;;0.03;0.03;;;5.00;99.90;;;;;;5064412;28;20223;-80
2022/12/08 04:36:31;;;;;;;0.10;0.10;;;5.00;99.90;;;;;;5063083;28;20207;-80
2022/12/08 04:38:57;;;;;;;0.10;0.10;;;5.00;99.90;;;;;;5062950;28;20187;-80
2022/12/08 04:41:22;;;;;;;0.10;0.10;;;5.00;99.90;;;;;;5062798;28;20173;-80
2022/12/08 04:43:48;;;;;;;0.10;0.10;;;5.00;99.90;;;;;;5062351;28;20233;-79
2022/12/08 04:46:13;;;;;;;0.10;0.10;;;5.00;99.90;;;;;;5064324;28;20226;-80
2022/12/08 04:48:40;;;;;;;0.10;0.10;;;5.00;99.90;;;;;;5060932;28;20260;-80
2022/12/08 04:51:06;;;;;;;0.10;0.10;;;5.00;99.90;;;;;;5061073;28;20181;-80
2022/12/08 04:53:32;;;;;;;0.00;0.00;;;5.10;99.90;;;;;;5061769;28;20201;-80
2022/12/08 04:55:58;;;;;;;0.10;0.10;;;5.10;99.90;;;;;;5063793;28;20192;-80
2022/12/08 04:58:23;;;;;;;0.10;0.10;;;5.10;99.90;;;;;;5062450;28;20605;-80
2022/12/08 05:00:49;;;;;;;0.10;0.10;;;5.10;99.90;;;;;;5064068;28;20197;-80
2022/12/08 05:03:15;;;;;;;0.10;0.10;;;5.20;99.90;;;;;;5065938;28;20677;-79
2022/12/08 05:05:41;;;;;;;0.10;0.10;;;5.20;99.90;;;;;;5066777;28;20628;-80
2022/12/08 05:08:08;;;;;;;0.10;0.10;;;5.20;99.90;;;;;;5066705;28;20228;-80
2022/12/08 05:10:33;;;;;;;0.10;0.10;;;5.20;99.90;;;;;;5064473;28;20181;-80
2022/12/08 05:12:59;;;;;;;0.10;0.10;;;5.30;99.90;;;;;;5067947;28;20630;-80
2022/12/08 05:15:25;;;;;;;0.10;0.10;;;5.30;99.90;;;;;;5065987;28;20236;-80
2022/12/08 05:17:50;;;;;;;0.10;0.10;;;5.20;99.90;;;;;;5066984;28;20204;-80
2022/12/08 05:20:16;;;;;;;0.10;0.10;;;5.20;99.90;;;;;;5067610;28;20711;-80
2022/12/08 05:22:42;;;;;;;0.10;0.10;;;5.10;99.90;;;;;;5069421;28;20173;-80
2022/12/08 05:25:08;;;;;;;0.10;0.10;;;5.00;99.90;;;;;;5066558;28;20192;-80
2022/12/08 05:27:34;;;;;;;0.10;0.10;;;5.00;99.90;;;;;;5068212;28;20275;-80
2022/12/08 05:30:00;;;;;;;0.10;0.10;;;5.00;99.90;;;;;;5066035;28;20292;-80
2022/12/08 05:32:26;;;;;;;0.10;0.10;;;5.00;99.90;;;;;;5065890;28;20267;-80
2022/12/08 05:34:51;;;;;;;0.10;0.10;;;5.00;99.90;;;;;;5066159;28;20181;-80
2022/12/08 05:37:17;;;;;;;0.07;0.07;;;5.10;99.90;;;;;;5063884;28;20213;-80
2022/12/08 05:39:42;;;;;;;0.10;0.10;;;5.20;99.90;;;;;;5066197;28;20216;-80
2022/12/08 05:42:08;;;;;;;0.10;0.10;;;5.20;99.90;;;;;;5065788;28;20230;-80
2022/12/08 05:44:34;;;;;;;0.10;0.10;;;5.20;99.90;;;;;;5065694;28;20181;-81
2022/12/08 05:46:59;;;;;;;0.10;0.10;;;5.10;99.90;;;;;;5067352;28;20258;-81
2022/12/08 05:49:25;;;;;;;0.10;0.10;;;5.20;99.90;;;;;;5065584;28;21031;-81
2022/12/08 05:51:51;;;;;;;0.10;0.10;;;5.20;99.90;;;;;;5065565;28;20181;-81
2022/12/08 05:54:16;;;;;;;0.10;0.10;;;5.20;99.90;;;;;;5065919;28;20197;-80
2022/12/08 05:56:42;;;;;;;0.10;0.10;;;5.10;99.90;;;;;;5066365;28;20257;-80
2022/12/08 05:59:08;;;;;;;0.10;0.10;;;5.20;99.90;;;;;;5064113;28;20215;-80
2022/12/08 06:01:33;;;;;;;0.10;0.10;;;5.20;99.90;;;;;;5065293;28;20185;-80
2022/12/08 06:04:01;;;;;;;0.10;0.10;;;5.20;99.90;;;;;;5064853;28;20188;-80
2022/12/08 06:06:27;;;;;;;0.10;0.10;;;5.20;99.90;;;;;;5065700;28;20201;-80
2022/12/08 06:08:53;;;;;;;0.10;0.10;;;5.20;99.90;;;;;;5064188;28;20193;-80
2022/12/08 06:11:27;;;;;;;0.10;0.10;;;5.20;99.90;;;;;;5063491;28;20712;-80
2022/12/08 06:13:54;;;;;;;0.10;0.10;;;4.90;99.90;;;;;;5064972;28;20285;-80
2022/12/08 06:16:20;;;;;;;0.10;0.10;;;4.50;99.90;;;;;;5064307;28;20571;-80
2022/12/08 06:18:46;;;;;;;0.10;0.10;;;4.40;99.90;;;;;;5062444;28;20185;-82
2022/12/08 06:21:13;;;;;;;0.10;0.10;;;4.50;99.90;;;;;;5064021;28;20207;-81
2022/12/08 06:23:39;;;;;;;0.10;0.10;;;4.50;99.90;;;;;;5067005;28;20181;-82
2022/12/08 06:26:08;;;;;;;0.00;0.00;;;4.60;99.90;;;;;;5065268;28;20212;-80
2022/12/08 06:28:34;;;;;;;0.10;0.10;;;4.60;99.90;;;;;;5066505;28;20198;-82
2022/12/08 06:31:26;;;;;;;0.10;0.10;;;4.80;99.90;;;;;;5065212;28;20664;-82
2022/12/08 06:33:53;;;;;;;0.10;0.10;;;5.00;99.90;;;;;;5062263;28;20213;-80
2022/12/08 06:36:20;;;;;;;0.10;0.10;;;4.90;99.90;;;;;;5062835;28;20291;-80
2022/12/08 06:38:46;;;;;;;0.10;0.10;;;4.90;99.90;;;;;;5078434;28;20555;-80
2022/12/08 06:41:12;;;;;;;0.10;0.10;;;5.00;99.90;;;;;;5064610;28;20181;-80
2022/12/08 06:43:38;;;;;;;0.10;0.10;;;5.10;99.90;;;;;;5082382;28;20217;-80
2022/12/08 06:46:06;;;;;;;0.10;0.10;;;5.10;99.90;;;;;;5065217;28;20206;-79
2022/12/08 06:48:32;;;;;;;0.00;0.00;;;5.10;99.90;;;;;;5081688;28;20187;-80
2022/12/08 06:51:08;;;;;;;0.10;0.10;;;5.20;99.90;;;;;;5064329;28;20196;-80
2022/12/08 06:53:34;;;;;;;0.10;0.10;;;5.20;99.90;;;;;;5063568;28;20255;-80
2022/12/08 06:55:59;;;;;;;0.10;0.10;;;5.20;99.90;;;;;;5064315;28;20608;-80
2022/12/08 06:58:25;;;;;;;0.10;0.10;;;5.20;99.90;;;;;;5063212;28;20558;-80
2022/12/08 07:00:50;;;;;;;0.10;0.10;;;5.20;99.90;;;;;;5063684;28;20204;-80
2022/12/08 07:03:16;;;;;;;0.10;0.10;;;5.30;99.90;;;;;;5064194;28;20211;-80
2022/12/08 07:05:42;;;;;;;0.10;0.10;;;5.30;99.90;;;;;;5064824;28;20184;-80
2022/12/08 07:08:08;;;;;;;0.10;0.10;;;5.30;99.90;;;;;;5062487;28;20851;-81
2022/12/08 07:10:34;;;;;;;0.10;0.10;;;5.40;99.90;;;;;;5064223;28;20193;-80
2022/12/08 07:13:00;;;;;;;0.10;0.10;;;5.40;99.90;;;;;;5064126;28;20212;-80
2022/12/08 07:15:25;;;;;;;0.10;0.10;;;5.30;99.90;;;;;;5063598;28;20192;-80
2022/12/08 07:17:52;;;;;;;0.10;0.10;;;5.30;99.90;;;;;;5063456;28;20638;-80
2022/12/08 07:20:18;;;;;;;0.10;0.10;;;5.30;99.90;;;;;;5064767;28;21054;-80
2022/12/08 07:22:51;;;;;;;0.10;0.10;;;5.20;99.90;;;;;;5062139;28;20209;-82
2022/12/08 07:25:17;;;;;;;0.10;0.10;;;5.20;99.90;;;;;;5062048;28;20646;-84
2022/12/08 07:27:44;;;;;;;0.10;0.10;;;5.20;99.90;;;;;;5063308;28;20217;-84
2022/12/08 07:30:10;;;;;;;0.10;0.10;;;5.10;99.90;;;;;;5079927;28;20270;-82
2022/12/08 07:32:38;;;;;;;0.10;0.10;;;5.10;99.90;;;;;;5062537;28;20198;-83
2022/12/08 07:35:05;;;;;;;0.03;0.03;;;5.10;99.90;;;;;;5061567;28;20189;-83
2022/12/08 07:37:33;;;;;;;0.10;0.10;;;5.10;99.90;;;;;;5063600;28;20207;-84
2022/12/08 07:39:58;;;;;;;0.10;0.10;;;5.10;99.90;;;;;;5064919;28;20208;-83
2022/12/08 07:42:24;;;;;;;0.00;0.00;;;5.20;99.90;;;;;;5063606;28;20180;-83
2022/12/08 07:44:50;;;;;;;0.10;0.10;;;5.30;99.90;;;;;;5063554;28;20194;-82
2022/12/08 07:47:15;;;;;;;0.10;0.10;;;5.40;99.90;;;;;;5062287;28;20616;-83
2022/12/08 07:49:41;;;;;;;0.10;0.10;;;5.40;99.90;;;;;;5062395;28;20190;-83
2022/12/08 07:52:06;;;;;;;0.10;0.10;;;5.40;99.90;;;;;;5062767;28;20642;-83
2022/12/08 07:54:32;;;;;;;0.10;0.10;;;5.40;99.90;;;;;;5063635;28;20537;-83
2022/12/08 07:56:57;;;;;;;0.10;0.10;;;5.40;99.90;;;;;;5062501;28;20219;-84
2022/12/08 07:59:24;;;;;;;0.10;0.10;;;5.40;99.90;;;;;;5062476;28;21053;-84
2022/12/08 08:01:50;;;;;;;0.10;0.10;;;5.50;99.90;;;;;;5062315;28;20180;-84
2022/12/08 08:04:16;;;;;;;0.10;0.10;;;5.50;99.90;;;;;;5063103;28;20177;-84
2022/12/08 08:06:42;;;;;;;0.10;0.10;;;5.60;99.90;;;;;;5062492;28;20196;-83
2022/12/08 08:09:09;;;;;;;0.10;0.10;;;5.60;99.90;;;;;;5061909;28;20263;-84
2022/12/08 08:11:35;;;;;;;0.10;0.10;;;5.60;99.90;;;;;;5063103;28;20178;-82
2022/12/08 08:14:01;;;;;;;0.10;0.10;;;5.70;99.90;;;;;;5061400;28;20197;-83
2022/12/08 08:16:27;;;;;;;0.00;0.00;;;5.60;99.90;;;;;;5062106;28;20205;-84
2022/12/08 08:18:53;;;;;;;0.03;0.03;;;5.70;99.90;;;;;;5061963;28;20193;-83
2022/12/08 08:21:19;;;;;;;0.10;0.10;;;5.60;99.90;;;;;;5062467;28;21775;-81
2022/12/08 08:23:45;;;;;;;0.10;0.10;;;5.60;99.90;;;;;;5065088;28;20246;-81
2022/12/08 08:26:10;;;;;;;0.10;0.10;;;5.60;99.90;;;;;;5063035;28;20209;-81
2022/12/08 08:28:36;;;;;;;0.10;0.10;;;5.70;99.90;;;;;;5063249;28;20195;-80
2022/12/08 08:31:03;;;;;;;0.10;0.10;;;5.80;99.90;;;;;;5061788;28;20220;-81
2022/12/08 08:33:28;;;;;;;0.10;0.10;;;5.90;99.90;;;;;;5064593;28;20192;-83
2022/12/08 08:35:54;;;;;;;0.10;0.10;;;6.00;99.90;;;;;;5067173;28;20195;-86
2022/12/08 08:38:20;;;;;;;0.10;0.10;;;6.10;99.90;;;;;;5066803;28;20291;-82
2022/12/08 08:40:46;;;;;;;0.10;0.10;;;6.00;99.90;;;;;;5066333;28;20215;-82
2022/12/08 08:43:27;;;;;;;0.10;0.10;;;6.10;99.90;;;;;;5065848;28;21129;-81
2022/12/08 08:45:55;;;;;;;0.10;0.10;;;6.00;99.90;;;;;;5066187;28;20606;-83
2022/12/08 08:48:20;;;;;;;0.07;0.07;;;6.10;99.90;;;;;;5065000;28;20189;-82
2022/12/08 08:50:46;;;;;;;0.10;0.10;;;6.10;99.90;;;;;;5065782;28;20552;-82
2022/12/08 08:53:11;;;;;;;0.10;0.10;;;6.10;99.90;;;;;;5067369;28;20180;-81
2022/12/08 08:55:38;;;;;;;0.10;0.10;;;6.10;99.90;;;;;;5060018;28;20506;-81
2022/12/08 08:58:03;;;;;;;0.10;0.10;;;6.00;99.90;;;;;;5057319;28;20298;-81
2022/12/08 09:00:29;;;;;;;0.10;0.10;;;6.10;99.90;;;;;;5080026;28;20294;-81
2022/12/08 09:02:54;;;;;;;0.10;0.10;;;6.10;99.90;;;;;;5067143;28;20185;-81
2022/12/08 09:05:20;;;;;;;0.10;0.10;;;6.10;99.90;;;;;;5066591;28;20196;-80
2022/12/08 09:07:45;;;;;;;0.00;0.00;;;6.20;99.90;;;;;;5065735;28;20321;-81
2022/12/08 09:10:11;;;;;;;0.10;0.10;;;6.20;99.90;;;;;;5068454;28;20192;-81
2022/12/08 09:12:37;;;;;;;0.10;0.10;;;6.10;99.90;;;;;;5066279;28;20193;-81
2022/12/08 09:15:03;;;;;;;0.10;0.10;;;6.20;99.90;;;;;;5067877;28;20215;-80
2022/12/08 09:17:28;;;;;;;0.10;0.10;;;6.20;99.90;;;;;;5066602;28;20228;-81
2022/12/08 09:19:54;;;;;;;0.10;0.10;;;6.20;99.90;;;;;;5065952;28;20292;-81
2022/12/08 09:22:20;;;;;;;0.10;0.10;;;6.20;99.90;;;;;;5066705;28;20192;-83
2022/12/08 09:24:46;;;;;;;0.10;0.10;;;6.20;99.90;;;;;;5065901;28;20184;-81
2022/12/08 09:27:11;;;;;;;0.10;0.10;;;6.20;99.90;;;;;;5064519;28;20207;-81
2022/12/08 09:29:37;;;;;;;0.10;0.10;;;6.30;99.90;;;;;;5064680;28;20280;-81
2022/12/08 09:32:03;;;;;;;0.10;0.10;;;6.30;99.90;;;;;;5064458;28;20188;-81
2022/12/08 09:34:30;;;;;;;0.10;0.10;;;6.30;99.90;;;;;;5065416;28;20856;-81
2022/12/08 09:36:55;;;;;;;0.10;0.10;;;6.30;99.90;;;;;;5063899;28;20235;-81
2022/12/08 09:39:21;;;;;;;0.10;0.10;;;6.30;99.90;;;;;;5063967;28;20286;-81
2022/12/08 09:42:01;;;;;;;0.00;0.00;;;6.40;99.90;;;;;;5064320;28;20185;-81
2022/12/08 09:44:48;;;;;;;0.10;0.10;;;6.30;99.90;;;;;;5080508;28;20178;-81
2022/12/08 09:47:16;;;;;;;0.10;0.10;;;6.40;99.90;;;;;;5063711;28;20201;-83
2022/12/08 09:49:50;;;;;;;0.10;0.10;;;6.40;99.90;;;;;;5064617;28;20190;-83
2022/12/08 09:52:28;;;;;;;0.10;0.10;;;6.60;99.90;;;;;;5061694;28;20584;-81
2022/12/08 09:54:59;;;;;;;0.10;0.10;;;6.60;99.90;;;;;;5064603;28;20234;-81
2022/12/08 09:57:24;;;;;;;0.10;0.10;;;6.50;99.90;;;;;;5064538;28;20250;-82
2022/12/08 10:00:01;;;;;;;0.10;0.10;;;6.70;99.90;;;;;;5064237;28;20204;-83
2022/12/08 10:02:28;;;;;;;0.10;0.10;;;6.70;99.90;;;;;;5064084;28;20185;-83
2022/12/08 10:04:55;;;;;;;0.00;0.00;;;6.80;99.90;;;;;;5077465;28;20199;-81
2022/12/08 10:07:41;;;;;;;0.10;0.10;;;6.70;99.90;;;;;;5059115;28;20204;-82
2022/12/08 10:10:30;;;;;;;0.10;0.10;;;6.80;99.90;;;;;;5059643;28;20253;-82
2022/12/08 10:13:15;;;;;;;0.00;0.00;;;6.80;99.90;;;;;;5062966;28;20204;-82
2022/12/08 10:15:58;;;;;;;0.10;0.10;;;6.90;99.90;;;;;;5063430;28;20177;-81
2022/12/08 10:18:30;;;;;;;0.10;0.10;;;6.90;99.90;;;;;;5063422;28;21232;-81
2022/12/08 10:21:13;;;;;;;0.10;0.10;;;6.90;99.90;;;;;;5079348;28;20562;-81
2022/12/08 10:23:42;;;;;;;0.10;0.10;;;7.00;99.90;;;;;;5063950;28;20659;-81
2022/12/08 10:26:16;;;;;;;0.10;0.10;;;7.00;99.90;;;;;;5064579;28;20682;-81
2022/12/08 10:28:42;;;;;;;0.10;0.10;;;6.90;99.90;;;;;;5063849;28;20203;-82
2022/12/08 10:31:23;;;;;;;0.10;0.10;;;7.00;99.90;;;;;;5061153;28;20205;-81
2022/12/08 10:33:57;;;;;;;0.10;0.10;;;6.90;99.90;;;;;;5062988;28;20181;-81
2022/12/08 10:36:43;;;;;;;0.00;0.00;;;7.10;99.90;;;;;;5064011;28;20871;-82
2022/12/08 10:39:38;;;;;;;0.10;0.10;;;6.90;99.90;;;;;;5063729;28;20184;-80
2022/12/08 10:42:19;;;;;;;0.10;0.10;;;6.90;99.90;;;;;;5063837;28;20181;-82
2022/12/08 10:44:53;;;;;;;0.10;0.10;;;6.90;99.90;;;;;;5064401;28;20671;-82
2022/12/08 10:47:24;;;;;;;0.10;0.10;;;6.90;99.90;;;;;;5062898;28;20242;-80
2022/12/08 10:50:08;;;;;;;0.10;0.10;;;7.00;99.90;;;;;;5078272;28;20192;-80
2022/12/08 10:52:39;;;;;;;0.10;0.10;;;7.10;99.90;;;;;;5063924;28;20669;-80
2022/12/08 10:55:14;;;;;;;0.10;0.10;;;7.20;99.90;;;;;;5063075;28;20189;-80
2022/12/08 10:57:40;;;;;;;0.10;0.10;;;7.20;99.90;;;;;;5063038;28;20206;-80
2022/12/08 11:00:14;;;;;;;0.10;0.10;;;7.20;99.90;;;;;;5060606;28;20208;-80
2022/12/08 11:02:55;;;;;;;0.10;0.10;;;7.30;99.90;;;;;;5063357;28;20181;-80
2022/12/08 11:05:25;;;;;;;0.10;0.10;;;7.20;99.90;;;;;;5079436;28;22032;-80
2022/12/08 11:07:53;;;;;;;0.10;0.10;;;7.20;99.90;;;;;;5061068;28;20201;-81
2022/12/08 11:10:24;;;;;;;0.10;0.10;;;7.10;99.90;;;;;;5063237;28;20216;-80
2022/12/08 11:12:50;;;;;;;0.10;0.10;;;6.90;99.90;;;;;;5062375;28;20187;-81
2022/12/08 11:15:17;;;;;;;0.10;0.10;;;7.00;99.90;;;;;;5062507;28;20181;-81
2022/12/08 11:17:44;;;;;;;0.00;0.00;;;7.00;99.90;;;;;;5079563;28;20562;-80
2022/12/08 11:20:10;;;;;;;0.10;0.10;;;6.80;99.90;;;;;;5063805;28;20209;-80
2022/12/08 11:22:39;;;;;;;0.10;0.10;;;6.90;99.90;;;;;;5063365;28;20180;-80
2022/12/08 11:25:10;;;;;;;0.10;0.10;;;6.90;99.90;;;;;;5063313;28;20187;-80
2022/12/08 11:27:44;;;;;;;0.10;0.10;;;6.90;99.90;;;;;;5062488;28;20196;-81
2022/12/08 11:30:21;;;;;;;0.10;0.10;;;7.00;99.90;;;;;;5062896;28;20180;-81
2022/12/08 11:32:55;;;;;;;0.10;0.10;;;7.00;99.90;;;;;;5062087;28;20200;-80
2022/12/08 11:35:32;;;;;;;0.10;0.10;;;7.00;99.90;;;;;;5057823;28;20544;-81
2022/12/08 11:38:13;;;;;;;0.10;0.10;;;7.10;99.90;;;;;;5061772;28;20583;-80
2022/12/08 11:40:41;;;;;;;0.10;0.10;;;7.20;99.90;;;;;;5063694;28;20204;-80
2022/12/08 11:43:29;;;;;;;0.10;0.10;;;7.40;99.90;;;;;;5062982;28;20193;-81
2022/12/08 11:46:00;;;;;;;2.27;2.20;;;7.40;99.90;;;;;;5063986;28;20664;-81
2022/12/08 11:48:35;;;;;;;0.10;0.10;;;7.70;99.90;;;;;;5062291;28;20220;-81
2022/12/08 11:51:11;;;;;;;0.10;0.10;;;7.90;99.90;;;;;;5061094;28;20188;-80
2022/12/08 11:54:05;;;;;;;0.10;0.10;;;8.10;99.90;;;;;;5061711;28;20234;-80
2022/12/08 11:56:35;;;;;;;0.10;0.10;;;8.00;99.90;;;;;;5060551;28;20235;-81
2022/12/08 11:59:16;;;;;;;0.10;0.10;;;8.00;99.90;;;;;;5060293;28;20643;-81
2022/12/08 12:01:41;;;;;;;0.10;0.10;;;8.00;99.90;;;;;;5077453;28;20183;-80
2022/12/08 12:04:13;;;;;;;0.10;0.10;;;8.00;99.90;;;;;;5061569;28;20173;-80
2022/12/08 12:07:17;;;;;;;0.10;0.10;;;8.10;99.90;;;;;;5059915;28;20218;-81
2022/12/08 12:10:20;;;;;;;0.10;0.10;;;8.20;99.90;;;;;;5062381;28;20188;-80
2022/12/08 12:13:18;;;;;;;0.10;0.10;;;8.30;99.90;;;;;;5061673;28;20615;-81
2022/12/08 12:16:06;;;;;;;0.10;0.10;;;8.20;99.90;;;;;;5062326;28;21276;-80
2022/12/08 12:18:37;;;;;;;0.10;0.10;;;8.00;99.90;;;;;;5060700;28;20867;-81
2022/12/08 12:21:11;;;;;;;0.10;0.10;;;8.00;99.90;;;;;;5060335;28;20283;-82
2022/12/08 12:23:43;;;;;;;0.10;0.10;;;7.80;99.90;;;;;;5063118;28;20186;-81
2022/12/08 12:26:18;;;;;;;0.10;0.10;;;7.70;99.90;;;;;;5062392;28;20205;-81
2022/12/08 12:28:59;;;;;;;0.10;0.10;;;7.70;99.90;;;;;;5065347;28;20200;-80
2022/12/08 12:31:29;;;;;;;0.10;0.10;;;7.70;99.90;;;;;;5081221;28;20190;-80
2022/12/08 12:34:12;;;;;;;0.10;0.10;;;8.00;99.90;;;;;;5080110;28;20267;-81
2022/12/08 12:37:16;;;;;;;0.00;0.00;;;7.80;99.90;;;;;;5062114;28;20484;-80
2022/12/08 12:39:58;;;;;;;0.10;0.10;;;7.80;99.90;;;;;;4985082;28;20203;-81
2022/12/08 12:42:38;;;;;;;0.20;0.20;;;7.70;99.90;;;;;;5056147;28;20190;-81
2022/12/08 12:45:14;;;;;;;0.00;0.00;;;7.60;99.90;;;;;;5060693;28;20177;-83
2022/12/08 12:47:50;;;;;;;0.10;0.10;;;7.40;99.90;;;;;;5060568;28;20286;-81
2022/12/08 12:50:31;;;;;;;0.10;0.10;;;7.30;99.90;;;;;;5061192;28;20215;-81
2022/12/08 12:53:04;;;;;;;0.10;0.10;;;7.30;99.90;;;;;;5062633;28;20188;-82
2022/12/08 12:56:02;;;;;;;0.10;0.10;;;7.40;99.90;;;;;;5061857;28;20237;-81
2022/12/08 12:58:28;;;;;;;0.10;0.10;;;7.50;99.90;;;;;;5062540;28;20243;-81
2022/12/08 13:01:09;;;;;;;0.10;0.10;;;7.50;99.90;;;;;;5061960;28;20573;-81
2022/12/08 13:03:40;;;;;;;0.10;0.10;;;7.50;99.90;;;;;;5063697;28;20185;-81
2022/12/08 13:06:06;;;;;;;0.10;0.10;;;7.50;99.90;;;;;;5062076;28;20200;-80
2022/12/08 13:08:32;;;;;;;0.10;0.10;;;7.60;99.90;;;;;;5062446;28;20987;-81
2022/12/08 13:11:07;;;;;;;0.10;0.10;;;8.00;99.90;;;;;;5061609;28;20203;-80
2022/12/08 13:13:34;;;;;;;0.10;0.10;;;8.30;99.90;;;;;;5061243;28;20258;-81
2022/12/08 13:16:08;;;;;;;0.10;0.10;;;8.60;99.90;;;;;;5063027;28;20193;-81